Time;durP1;ratioP1;P1;durP2;ratioP2;P2;SDS_P1;SDS_P2;PMS_P1;PMS_P2;Temp;Humidity;BMP_temperature;BMP_pressure;BME280_temperature;BME280_humidity;BME280_pressure;Samples;Min_cycle;Max_cycle;Signal;HPM_P1;HPM_P2
2021/01/23 00:00:58;;;;;;;2.17;1.75;;;1.90;99.90;;;;;;5029541;28;20089;-66
2021/01/23 00:03:24;;;;;;;1.00;0.90;;;1.80;99.90;;;;;;5026124;28;20017;-66
2021/01/23 00:05:49;;;;;;;1.70;1.60;;;1.80;99.90;;;;;;5016494;28;20038;-66
2021/01/23 00:08:15;;;;;;;1.30;1.20;;;1.80;99.90;;;;;;5013345;28;20038;-67
2021/01/23 00:10:41;;;;;;;1.35;1.25;;;1.80;99.90;;;;;;5032473;28;20018;-65
2021/01/23 00:13:06;;;;;;;1.00;1.00;;;1.80;99.90;;;;;;5023512;28;20014;-67
2021/01/23 00:15:32;;;;;;;1.33;1.23;;;1.80;99.90;;;;;;5017342;28;20027;-66
2021/01/23 00:17:57;;;;;;;1.50;1.40;;;1.80;99.90;;;;;;5032682;28;20034;-66
2021/01/23 00:20:23;;;;;;;0.77;0.77;;;1.80;99.90;;;;;;5036986;28;20026;-66
2021/01/23 00:22:50;;;;;;;1.60;1.50;;;1.90;99.90;;;;;;5024381;28;20102;-67
2021/01/23 00:25:16;;;;;;;2.17;1.98;;;1.80;99.90;;;;;;5017387;28;20070;-67
2021/01/23 00:27:41;;;;;;;2.40;2.30;;;1.80;99.90;;;;;;5024072;28;20030;-67
2021/01/23 00:30:08;;;;;;;2.58;2.38;;;1.80;99.90;;;;;;5025585;28;20103;-66
2021/01/23 00:32:34;;;;;;;2.50;2.30;;;1.90;99.90;;;;;;5032134;28;20106;-69
2021/01/23 00:35:00;;;;;;;2.92;2.63;;;1.90;99.90;;;;;;5019905;28;20049;-68
2021/01/23 00:37:25;;;;;;;3.03;2.80;;;1.90;99.90;;;;;;5045247;23;20082;-81
2021/01/23 00:39:56;;;;;;;4.95;4.43;;;1.90;99.90;;;;;;5022952;28;20034;-80
2021/01/23 00:42:22;;;;;;;4.38;3.97;;;1.90;99.90;;;;;;5023115;28;20021;-78
2021/01/23 00:44:48;;;;;;;3.33;3.03;;;1.90;99.90;;;;;;5015275;28;20046;-77
2021/01/23 00:47:13;;;;;;;3.58;3.28;;;1.90;99.90;;;;;;4998271;28;20025;-74
2021/01/23 00:49:39;;;;;;;4.50;4.10;;;1.90;99.90;;;;;;4975581;28;20042;-73
2021/01/23 00:52:04;;;;;;;5.45;4.95;;;1.90;99.90;;;;;;4980123;28;21011;-75
2021/01/23 00:54:30;;;;;;;4.63;4.22;;;1.90;99.90;;;;;;4988923;28;20454;-75
2021/01/23 00:56:55;;;;;;;5.00;4.60;;;1.90;99.90;;;;;;4980644;28;20430;-75
2021/01/23 00:59:21;;;;;;;4.57;4.18;;;1.90;99.90;;;;;;4982977;28;20026;-75
2021/01/23 01:01:47;;;;;;;4.93;4.43;;;1.90;99.90;;;;;;4981679;28;20394;-74
2021/01/23 01:04:12;;;;;;;4.80;3.45;;;1.90;99.90;;;;;;4976918;28;20023;-74
2021/01/23 01:06:38;;;;;;;4.43;3.97;;;2.00;99.90;;;;;;4983110;28;20034;-75
2021/01/23 01:09:04;;;;;;;4.30;3.90;;;2.00;99.90;;;;;;4980932;28;20022;-74
2021/01/23 01:11:29;;;;;;;6.20;5.50;;;2.00;99.90;;;;;;4984432;28;20043;-75
2021/01/23 01:13:55;;;;;;;5.88;5.28;;;2.00;99.90;;;;;;4992403;28;20057;-75
2021/01/23 01:16:20;;;;;;;5.03;4.55;;;2.00;99.90;;;;;;4979677;28;20023;-75
2021/01/23 01:18:46;;;;;;;7.03;6.30;;;2.00;99.90;;;;;;4981719;28;20091;-74
2021/01/23 01:21:11;;;;;;;8.48;7.68;;;1.90;99.90;;;;;;4990690;28;20061;-73
2021/01/23 01:23:38;;;;;;;8.98;7.60;;;1.90;99.90;;;;;;4993485;28;20022;-73
2021/01/23 01:26:04;;;;;;;8.07;7.30;;;2.00;99.90;;;;;;4984554;28;20027;-74
2021/01/23 01:28:29;;;;;;;8.05;7.35;;;1.90;99.90;;;;;;4977216;28;20035;-75
2021/01/23 01:30:55;;;;;;;8.70;7.90;;;1.90;99.90;;;;;;4989244;28;20023;-74
2021/01/23 01:33:20;;;;;;;8.80;8.00;;;1.90;99.90;;;;;;4993307;28;20026;-76
2021/01/23 01:35:46;;;;;;;8.77;7.97;;;1.90;99.90;;;;;;4977411;28;20459;-74
2021/01/23 01:38:12;;;;;;;9.60;8.70;;;1.90;99.90;;;;;;4979905;28;20089;-74
2021/01/23 01:40:37;;;;;;;9.35;8.45;;;1.90;99.90;;;;;;4986285;28;20023;-73
2021/01/23 01:43:03;;;;;;;8.07;7.28;;;1.90;99.90;;;;;;4997559;28;20449;-75
2021/01/23 01:45:29;;;;;;;8.20;7.40;;;2.00;99.90;;;;;;4996827;28;20070;-76
2021/01/23 01:47:54;;;;;;;8.27;7.50;;;1.90;99.90;;;;;;4992353;28;20097;-75
2021/01/23 01:50:20;;;;;;;8.70;7.90;;;1.90;99.90;;;;;;4993149;28;20026;-73
2021/01/23 01:52:50;;;;;;;8.98;8.13;;;1.90;99.90;;;;;;4993888;28;20034;-75
2021/01/23 01:55:15;;;;;;;7.78;7.07;;;1.90;99.90;;;;;;4996402;28;20389;-74
2021/01/23 01:57:41;;;;;;;6.43;5.82;;;1.90;99.90;;;;;;4990352;28;20037;-73
2021/01/23 02:00:07;;;;;;;5.43;4.93;;;1.90;99.90;;;;;;4991681;28;20030;-73
2021/01/23 02:02:47;;;;;;;5.03;4.32;;;2.00;99.90;;;;;;4992438;28;20051;-73
2021/01/23 02:05:36;;;;;;;4.22;3.85;;;2.00;99.90;;;;;;4999127;28;20022;-74
2021/01/23 02:08:39;;;;;;;4.00;3.42;;;2.00;99.90;;;;;;4994921;28;20040;-73
2021/01/23 02:11:35;;;;;;;2.75;2.55;;;2.10;99.90;;;;;;4990635;28;20029;-75
2021/01/23 02:14:21;;;;;;;3.95;3.63;;;2.10;99.90;;;;;;4989982;28;20037;-74
2021/01/23 02:16:49;;;;;;;3.63;3.42;;;2.10;99.90;;;;;;4982737;28;20743;-72
2021/01/23 02:19:29;;;;;;;3.63;3.33;;;2.10;99.90;;;;;;4992984;28;20513;-73
2021/01/23 02:22:07;;;;;;;3.30;3.00;;;2.10;99.90;;;;;;4994437;28;20546;-73
2021/01/23 02:24:33;;;;;;;3.72;3.40;;;2.10;99.90;;;;;;4991374;28;20090;-74
2021/01/23 02:26:58;;;;;;;3.50;3.20;;;2.10;99.90;;;;;;4994983;28;20029;-74
2021/01/23 02:30:00;;;;;;;3.65;3.35;;;2.10;99.90;;;;;;5007104;28;20049;-73
2021/01/23 02:32:30;;;;;;;3.42;3.13;;;2.10;99.90;;;;;;5005011;28;20440;-73
2021/01/23 02:34:58;;;;;;;4.00;3.63;;;2.10;99.90;;;;;;4992842;28;20041;-73
2021/01/23 02:37:25;;;;;;;3.22;2.95;;;2.10;99.90;;;;;;4989021;28;20023;-74
2021/01/23 02:39:51;;;;;;;3.20;3.00;;;2.20;99.90;;;;;;4994207;28;20045;-74
2021/01/23 02:42:17;;;;;;;3.30;3.05;;;2.20;99.90;;;;;;4998042;28;20026;-74
2021/01/23 02:44:42;;;;;;;3.50;3.20;;;2.20;99.90;;;;;;5017784;28;20022;-73
2021/01/23 02:47:08;;;;;;;3.00;2.70;;;2.20;99.90;;;;;;5000240;28;20039;-73
2021/01/23 02:49:34;;;;;;;2.95;2.72;;;2.20;99.90;;;;;;4999049;28;20046;-73
2021/01/23 02:52:14;;;;;;;2.80;2.60;;;2.20;99.90;;;;;;4993455;28;20045;-73
2021/01/23 02:54:49;;;;;;;3.08;2.80;;;2.10;99.90;;;;;;5006368;28;20041;-73
2021/01/23 02:57:18;;;;;;;1.95;1.85;;;2.20;99.90;;;;;;4989665;28;20030;-72
2021/01/23 02:59:47;;;;;;;2.60;1.90;;;2.20;99.90;;;;;;4986057;28;20031;-74
2021/01/23 03:02:15;;;;;;;2.25;2.05;;;2.20;99.90;;;;;;4989299;28;20382;-73
2021/01/23 03:04:42;;;;;;;2.30;2.10;;;2.20;99.90;;;;;;4995041;28;20023;-73
2021/01/23 03:07:12;;;;;;;2.15;2.00;;;2.20;99.90;;;;;;4988416;28;20398;-75
2021/01/23 03:09:38;;;;;;;2.20;1.88;;;2.10;99.90;;;;;;4995361;28;20030;-73
2021/01/23 03:12:04;;;;;;;3.20;2.25;;;2.20;99.90;;;;;;4995158;28;20121;-73
2021/01/23 03:14:29;;;;;;;2.13;1.90;;;2.20;99.90;;;;;;4995474;28;20402;-74
2021/01/23 03:16:56;;;;;;;1.88;1.77;;;2.20;99.90;;;;;;4993996;28;20413;-74
2021/01/23 03:19:23;;;;;;;2.00;1.77;;;2.20;99.90;;;;;;4993998;28;20600;-74
2021/01/23 03:21:50;;;;;;;2.10;2.00;;;2.20;99.90;;;;;;4993752;28;20049;-73
2021/01/23 03:24:17;;;;;;;2.30;2.13;;;2.30;99.90;;;;;;4993424;28;20050;-74
2021/01/23 03:26:43;;;;;;;2.05;1.95;;;2.30;99.90;;;;;;4991227;28;20034;-73
2021/01/23 03:29:09;;;;;;;2.13;2.00;;;2.30;99.90;;;;;;4993081;28;20062;-74
2021/01/23 03:31:35;;;;;;;2.53;2.33;;;2.30;99.90;;;;;;4991394;28;20402;-73
2021/01/23 03:34:02;;;;;;;2.40;2.20;;;2.30;99.90;;;;;;4994191;28;20030;-73
2021/01/23 03:36:28;;;;;;;3.88;2.65;;;2.30;99.90;;;;;;4991973;28;20026;-73
2021/01/23 03:38:54;;;;;;;2.97;2.67;;;2.30;99.90;;;;;;4990093;28;20043;-72
2021/01/23 03:41:20;;;;;;;3.03;2.20;;;2.40;99.90;;;;;;4992658;28;20033;-73
2021/01/23 03:43:45;;;;;;;2.13;2.03;;;2.40;99.90;;;;;;4990044;28;20030;-73
2021/01/23 03:46:11;;;;;;;2.38;2.17;;;2.50;99.90;;;;;;4993275;28;20026;-72
2021/01/23 03:48:37;;;;;;;1.90;1.80;;;2.50;99.90;;;;;;4994206;28;20397;-73
2021/01/23 03:51:04;;;;;;;2.00;1.80;;;2.50;99.90;;;;;;4991544;28;21009;-73
2021/01/23 03:53:30;;;;;;;2.35;2.15;;;2.50;99.90;;;;;;4991982;28;20057;-73
2021/01/23 03:55:55;;;;;;;2.33;2.13;;;2.60;99.90;;;;;;4992790;28;20026;-74
2021/01/23 03:58:21;;;;;;;2.53;2.15;;;2.60;99.90;;;;;;4991977;28;20089;-72
2021/01/23 04:00:47;;;;;;;2.40;2.20;;;2.60;99.90;;;;;;4990910;28;20321;-73
2021/01/23 04:03:13;;;;;;;2.60;2.40;;;2.60;99.90;;;;;;4990554;28;20029;-73
2021/01/23 04:05:39;;;;;;;2.90;2.70;;;2.60;99.90;;;;;;4985991;28;20042;-73
2021/01/23 04:08:05;;;;;;;3.35;3.05;;;2.70;99.90;;;;;;4989903;28;20438;-73
2021/01/23 04:10:30;;;;;;;2.42;2.13;;;2.70;99.90;;;;;;4988980;28;20027;-75
2021/01/23 04:12:56;;;;;;;4.88;2.95;;;2.70;99.90;;;;;;4993047;28;20374;-74
2021/01/23 04:15:23;;;;;;;2.70;2.50;;;2.70;99.90;;;;;;4993510;28;20022;-74
2021/01/23 04:17:48;;;;;;;2.38;2.10;;;2.80;99.90;;;;;;4989172;28;20045;-74
2021/01/23 04:20:14;;;;;;;2.78;2.55;;;2.80;99.90;;;;;;4991290;28;20026;-74
2021/01/23 04:22:39;;;;;;;2.47;2.28;;;2.80;99.90;;;;;;4988111;28;20034;-72
2021/01/23 04:25:06;;;;;;;4.05;2.30;;;2.80;99.90;;;;;;4985199;28;20610;-74
2021/01/23 04:27:32;;;;;;;2.90;2.20;;;2.80;99.90;;;;;;4989071;28;20022;-73
2021/01/23 04:29:58;;;;;;;2.35;2.08;;;2.90;99.90;;;;;;4993911;28;20037;-73
2021/01/23 04:32:24;;;;;;;4.78;2.40;;;2.90;99.90;;;;;;4994940;28;20069;-72
2021/01/23 04:34:49;;;;;;;2.75;2.10;;;2.90;99.90;;;;;;4990594;28;20058;-73
2021/01/23 04:37:15;;;;;;;2.03;1.83;;;2.90;99.90;;;;;;4992626;28;20030;-73
2021/01/23 04:39:40;;;;;;;1.98;1.73;;;2.90;99.90;;;;;;4998695;28;20050;-73
2021/01/23 04:42:09;;;;;;;1.73;1.63;;;2.90;99.90;;;;;;5001339;28;20034;-72
2021/01/23 04:44:39;;;;;;;1.88;1.73;;;2.90;99.90;;;;;;4997371;28;20035;-74
2021/01/23 04:47:05;;;;;;;2.28;2.08;;;2.90;99.90;;;;;;5003067;28;20026;-73
2021/01/23 04:49:31;;;;;;;2.00;1.80;;;3.00;99.90;;;;;;5014278;28;20106;-73
2021/01/23 04:52:02;;;;;;;2.15;2.00;;;2.90;99.90;;;;;;5001094;28;20026;-73
2021/01/23 04:54:29;;;;;;;2.00;1.90;;;2.90;99.90;;;;;;4997131;28;20049;-73
2021/01/23 04:56:55;;;;;;;2.03;1.92;;;2.90;99.90;;;;;;4990685;28;20041;-73
2021/01/23 04:59:21;;;;;;;3.47;2.13;;;2.90;99.90;;;;;;4996813;28;20030;-73
2021/01/23 05:02:19;;;;;;;5.30;2.15;;;2.90;99.90;;;;;;4999493;28;20045;-73
2021/01/23 05:04:54;;;;;;;1.88;1.75;;;2.90;99.90;;;;;;4991583;28;20026;-74
2021/01/23 05:07:33;;;;;;;2.85;1.60;;;2.80;99.90;;;;;;4990602;28;20061;-73
2021/01/23 05:10:28;;;;;;;1.83;1.70;;;2.90;99.90;;;;;;4991937;28;20030;-73
2021/01/23 05:12:55;;;;;;;3.85;2.33;;;2.80;99.90;;;;;;5006291;28;20031;-73
2021/01/23 05:15:31;;;;;;;1.77;1.67;;;2.80;99.90;;;;;;5006525;28;20033;-72
2021/01/23 05:18:01;;;;;;;1.73;1.63;;;2.80;99.90;;;;;;4986523;28;20030;-73
2021/01/23 05:20:47;;;;;;;3.10;1.38;;;2.80;99.90;;;;;;4990021;28;20398;-73
2021/01/23 05:23:16;;;;;;;3.38;1.73;;;2.90;99.90;;;;;;4987511;28;20094;-73
2021/01/23 05:25:49;;;;;;;2.20;1.90;;;2.90;99.90;;;;;;4988263;28;20053;-73
2021/01/23 05:28:25;;;;;;;2.33;1.50;;;2.90;99.90;;;;;;4990225;28;20434;-73
2021/01/23 05:30:51;;;;;;;1.50;1.40;;;2.90;99.90;;;;;;4989851;28;20038;-73
2021/01/23 05:33:18;;;;;;;1.70;1.60;;;3.00;99.90;;;;;;4997428;28;20038;-73
2021/01/23 05:35:54;;;;;;;2.15;1.95;;;2.90;99.90;;;;;;4993973;28;20038;-73
2021/01/23 05:38:42;;;;;;;1.73;1.63;;;2.90;99.90;;;;;;4993170;28;20030;-71
2021/01/23 05:41:08;;;;;;;1.88;1.77;;;2.90;99.90;;;;;;4989324;28;20030;-72
2021/01/23 05:43:38;;;;;;;3.97;2.13;;;2.90;99.90;;;;;;4991352;28;20038;-75
2021/01/23 05:46:11;;;;;;;2.17;2.00;;;2.90;99.90;;;;;;4987745;28;20031;-73
2021/01/23 05:48:41;;;;;;;1.90;1.73;;;2.90;99.90;;;;;;4993477;28;20035;-73
2021/01/23 05:51:07;;;;;;;2.30;1.75;;;2.90;99.90;;;;;;5000212;28;20090;-73
2021/01/23 05:53:34;;;;;;;2.17;1.80;;;2.90;99.90;;;;;;4996733;28;20110;-74
2021/01/23 05:56:00;;;;;;;2.05;1.95;;;2.90;99.90;;;;;;4996620;28;20065;-74
2021/01/23 05:58:31;;;;;;;2.33;2.13;;;2.90;99.90;;;;;;5000382;28;20026;-73
2021/01/23 06:00:58;;;;;;;2.35;2.15;;;2.90;99.90;;;;;;4997967;28;20034;-74
2021/01/23 06:03:28;;;;;;;2.60;2.25;;;3.10;99.90;;;;;;4984625;28;20031;-74
2021/01/23 06:05:57;;;;;;;2.95;2.40;;;3.10;99.90;;;;;;4985083;28;20118;-74
2021/01/23 06:08:38;;;;;;;2.15;1.95;;;3.00;99.90;;;;;;4988426;28;20537;-75
2021/01/23 06:11:03;;;;;;;2.88;2.55;;;2.90;99.90;;;;;;5008370;28;20110;-74
2021/01/23 06:13:37;;;;;;;1.83;1.73;;;2.90;99.90;;;;;;4984578;28;20121;-73
2021/01/23 06:16:03;;;;;;;2.75;2.47;;;2.90;99.90;;;;;;4989512;28;20039;-73
2021/01/23 06:18:30;;;;;;;1.80;1.70;;;2.90;99.90;;;;;;5002591;28;20031;-73
2021/01/23 06:21:00;;;;;;;2.35;1.65;;;2.90;99.90;;;;;;5009249;28;20046;-73
2021/01/23 06:23:46;;;;;;;1.80;1.70;;;2.80;99.90;;;;;;5007520;28;20030;-73
2021/01/23 06:26:11;;;;;;;3.60;2.33;;;2.90;99.90;;;;;;5011845;28;20389;-73
2021/01/23 06:28:40;;;;;;;3.28;2.10;;;2.90;99.90;;;;;;5019009;28;20026;-73
2021/01/23 06:31:28;;;;;;;4.45;2.25;;;2.90;99.90;;;;;;5009557;28;20034;-73
2021/01/23 06:33:55;;;;;;;3.53;2.42;;;2.90;99.90;;;;;;5007649;28;20077;-73
2021/01/23 06:36:22;;;;;;;4.28;2.90;;;2.90;99.90;;;;;;5009030;28;20045;-72
2021/01/23 06:39:08;;;;;;;3.28;2.38;;;2.90;99.90;;;;;;5000588;23;20054;-70
2021/01/23 06:41:36;;;;;;;2.20;2.00;;;2.90;99.90;;;;;;4978072;28;20026;-71
2021/01/23 06:44:08;;;;;;;1.73;1.63;;;2.90;99.90;;;;;;4978777;28;20058;-72
2021/01/23 06:46:38;;;;;;;2.60;2.40;;;2.80;99.90;;;;;;4979473;28;20398;-72
2021/01/23 06:49:10;;;;;;;2.22;1.73;;;2.80;99.90;;;;;;4977378;28;20442;-71
2021/01/23 06:51:35;;;;;;;2.38;2.17;;;2.80;99.90;;;;;;4968485;28;20034;-72
2021/01/23 06:54:21;;;;;;;2.83;2.20;;;2.80;99.90;;;;;;4975433;28;20118;-72
2021/01/23 06:56:52;;;;;;;1.92;1.83;;;2.80;99.90;;;;;;4971022;28;20030;-71
2021/01/23 06:59:35;;;;;;;2.55;2.17;;;2.80;99.90;;;;;;4975647;28;20046;-71
2021/01/23 07:02:05;;;;;;;2.30;2.15;;;2.80;99.90;;;;;;4972567;28;20050;-72
2021/01/23 07:04:35;;;;;;;2.63;1.75;;;2.80;99.90;;;;;;4989829;28;20019;-72
2021/01/23 07:07:07;;;;;;;3.28;2.25;;;2.80;99.90;;;;;;4974729;28;20435;-72
2021/01/23 07:09:49;;;;;;;2.45;2.22;;;2.90;99.90;;;;;;4990499;28;20031;-72
2021/01/23 07:12:40;;;;;;;2.97;2.25;;;3.00;99.90;;;;;;4979948;28;20043;-72
2021/01/23 07:15:09;;;;;;;2.55;2.35;;;3.00;99.90;;;;;;4981189;28;20102;-72
2021/01/23 07:17:43;;;;;;;2.55;2.35;;;3.10;99.90;;;;;;4971424;28;20046;-72
2021/01/23 07:20:13;;;;;;;3.30;2.50;;;2.90;99.90;;;;;;4977362;28;20031;-72
2021/01/23 07:22:40;;;;;;;4.03;2.00;;;2.90;99.90;;;;;;4972587;28;20089;-71
2021/01/23 07:25:08;;;;;;;3.05;2.17;;;2.90;99.90;;;;;;4971898;28;20534;-72
2021/01/23 07:27:35;;;;;;;3.67;2.20;;;3.00;99.90;;;;;;4974710;28;20080;-72
2021/01/23 07:30:01;;;;;;;2.88;2.67;;;2.90;99.90;;;;;;4974981;28;20104;-71
2021/01/23 07:32:39;;;;;;;4.22;3.35;;;2.90;99.90;;;;;;4974740;28;20475;-71
2021/01/23 07:35:06;;;;;;;3.08;2.17;;;3.10;99.90;;;;;;4973867;28;20490;-71
2021/01/23 07:37:55;;;;;;;2.25;2.05;;;3.00;99.90;;;;;;4970338;28;20039;-71
2021/01/23 07:40:32;;;;;;;3.00;2.70;;;2.90;99.90;;;;;;4974793;28;20042;-72
2021/01/23 07:42:59;;;;;;;2.45;2.20;;;2.90;99.90;;;;;;4973669;28;20062;-72
2021/01/23 07:45:25;;;;;;;2.92;2.28;;;2.90;99.90;;;;;;4967356;28;20110;-73
2021/01/23 07:47:58;;;;;;;2.67;2.47;;;2.90;99.90;;;;;;4973312;28;20070;-71
2021/01/23 07:50:24;;;;;;;3.58;2.95;;;3.00;99.90;;;;;;4974711;28;20030;-72
2021/01/23 07:52:50;;;;;;;2.88;2.65;;;3.00;99.90;;;;;;4979447;28;20029;-72
2021/01/23 07:55:16;;;;;;;3.10;2.80;;;3.00;99.90;;;;;;4980352;28;20026;-71
2021/01/23 07:57:41;;;;;;;3.33;2.60;;;3.00;99.90;;;;;;4986459;28;20046;-72
2021/01/23 08:00:19;;;;;;;3.95;2.42;;;3.00;99.90;;;;;;4985084;28;20045;-72
2021/01/23 08:02:52;;;;;;;4.30;3.90;;;3.10;99.90;;;;;;4971884;28;20023;-72
2021/01/23 08:05:18;;;;;;;3.70;2.80;;;3.20;99.90;;;;;;4972965;28;20488;-72
2021/01/23 08:07:44;;;;;;;3.38;2.30;;;3.20;99.90;;;;;;4971335;28;20030;-72
2021/01/23 08:10:20;;;;;;;4.70;2.33;;;3.30;99.90;;;;;;4973549;28;20045;-70
2021/01/23 08:12:51;;;;;;;2.45;2.25;;;3.30;99.90;;;;;;4973862;28;20031;-71
2021/01/23 08:15:24;;;;;;;5.05;2.83;;;3.40;99.90;;;;;;4988860;28;20359;-72
2021/01/23 08:17:50;;;;;;;3.67;3.28;;;3.40;99.90;;;;;;4974156;28;20401;-72
2021/01/23 08:20:17;;;;;;;8.65;3.83;;;3.40;99.90;;;;;;4977732;28;20035;-71
2021/01/23 08:23:09;;;;;;;3.60;3.25;;;3.40;99.90;;;;;;4997450;28;20023;-71
2021/01/23 08:25:52;;;;;;;3.20;2.90;;;3.50;99.90;;;;;;4976905;28;20394;-72
2021/01/23 08:28:46;;;;;;;5.47;3.47;;;3.50;99.90;;;;;;4973265;28;20113;-72
2021/01/23 08:31:17;;;;;;;4.57;2.95;;;3.50;99.90;;;;;;4973795;28;20031;-71
2021/01/23 08:33:43;;;;;;;7.53;3.00;;;3.60;99.90;;;;;;4970388;28;20465;-72
2021/01/23 08:36:10;;;;;;;2.85;2.58;;;3.60;99.90;;;;;;4970653;28;20057;-71
2021/01/23 08:38:36;;;;;;;3.63;3.33;;;3.60;99.90;;;;;;4971363;28;20038;-71
2021/01/23 08:41:02;;;;;;;5.32;3.30;;;3.60;99.90;;;;;;4971435;28;20038;-71
2021/01/23 08:43:28;;;;;;;5.15;3.45;;;3.70;99.90;;;;;;4974196;28;20066;-72
2021/01/23 08:45:55;;;;;;;5.25;3.17;;;3.80;99.90;;;;;;4975951;28;20402;-73
2021/01/23 08:48:20;;;;;;;5.18;4.50;;;3.80;99.90;;;;;;4974099;28;20030;-72
2021/01/23 08:50:46;;;;;;;4.18;3.53;;;4.00;99.90;;;;;;4974673;28;20059;-71
2021/01/23 08:53:12;;;;;;;6.15;3.90;;;4.00;99.90;;;;;;4972981;28;20447;-71
2021/01/23 08:55:37;;;;;;;3.75;3.05;;;3.90;99.90;;;;;;4967416;28;20045;-72
2021/01/23 08:58:03;;;;;;;6.70;3.15;;;4.00;99.90;;;;;;4970137;28;20026;-71
2021/01/23 09:00:28;;;;;;;7.68;3.90;;;4.10;99.90;;;;;;4980060;28;21277;-71
2021/01/23 09:02:54;;;;;;;4.53;3.53;;;4.10;99.90;;;;;;4972896;28;20027;-71
2021/01/23 09:05:20;;;;;;;4.07;3.67;;;4.10;99.90;;;;;;4975529;28;20019;-71
2021/01/23 09:07:45;;;;;;;3.78;2.92;;;4.10;99.90;;;;;;4974144;28;20031;-71
2021/01/23 09:10:12;;;;;;;3.97;3.35;;;4.10;99.90;;;;;;4972618;28;20043;-71
2021/01/23 09:12:38;;;;;;;4.97;2.78;;;4.20;99.90;;;;;;4972759;28;20062;-71
2021/01/23 09:15:06;;;;;;;4.65;3.28;;;4.50;99.90;;;;;;4974767;28;20059;-70
2021/01/23 09:17:33;;;;;;;4.88;3.03;;;4.40;99.90;;;;;;4973702;28;20099;-71
2021/01/23 09:19:59;;;;;;;3.90;2.85;;;4.50;99.90;;;;;;4989172;28;20031;-70
2021/01/23 09:22:24;;;;;;;5.65;3.50;;;4.40;99.90;;;;;;4972695;28;20033;-71
2021/01/23 09:24:50;;;;;;;3.13;2.88;;;4.50;99.90;;;;;;4974707;28;20035;-71
2021/01/23 09:27:16;;;;;;;4.40;3.13;;;4.60;99.90;;;;;;4973158;28;20114;-71
2021/01/23 09:29:41;;;;;;;3.05;2.60;;;4.70;99.90;;;;;;4988868;28;20031;-72
2021/01/23 09:32:07;;;;;;;4.45;3.10;;;4.80;99.90;;;;;;4974127;28;20258;-71
2021/01/23 09:34:34;;;;;;;3.05;2.30;;;4.70;99.90;;;;;;4973917;28;20027;-72
2021/01/23 09:37:01;;;;;;;3.92;3.53;;;4.80;99.90;;;;;;4974327;28;20081;-72
2021/01/23 09:39:27;;;;;;;3.22;2.88;;;4.80;99.90;;;;;;4982363;28;20030;-71
2021/01/23 09:41:53;;;;;;;3.28;2.97;;;4.80;99.90;;;;;;4973085;28;20069;-71
2021/01/23 09:44:18;;;;;;;3.15;2.40;;;4.80;99.90;;;;;;4972747;28;20077;-72
2021/01/23 09:46:44;;;;;;;5.03;3.75;;;4.80;99.90;;;;;;4973234;28;20034;-72
2021/01/23 09:49:10;;;;;;;3.20;2.90;;;5.00;99.90;;;;;;4972520;28;20034;-72
2021/01/23 09:51:35;;;;;;;3.40;2.90;;;4.90;99.90;;;;;;4966519;28;20494;-70
2021/01/23 09:54:01;;;;;;;3.78;3.00;;;4.90;99.90;;;;;;4972260;28;20089;-70
2021/01/23 09:56:29;;;;;;;4.80;3.05;;;5.00;99.90;;;;;;4972536;28;20030;-70
2021/01/23 09:58:54;;;;;;;3.25;2.95;;;5.00;99.90;;;;;;4967594;28;20394;-72
2021/01/23 10:01:20;;;;;;;3.70;3.40;;;5.10;99.90;;;;;;4976786;28;20039;-71
2021/01/23 10:03:46;;;;;;;3.15;2.17;;;5.30;99.90;;;;;;4976767;28;20027;-72
2021/01/23 10:06:11;;;;;;;2.88;2.60;;;5.40;99.90;;;;;;4972835;28;20026;-72
2021/01/23 10:08:37;;;;;;;3.40;2.45;;;5.50;99.90;;;;;;4979320;28;20486;-70
2021/01/23 10:11:03;;;;;;;3.33;2.72;;;5.60;99.90;;;;;;4976160;28;20027;-71
2021/01/23 10:13:28;;;;;;;2.58;2.22;;;5.70;95.80;;;;;;4980508;28;20381;-71
2021/01/23 10:15:54;;;;;;;2.38;1.98;;;5.80;95.20;;;;;;4990758;28;20078;-71
2021/01/23 10:18:20;;;;;;;2.70;2.30;;;5.80;81.50;;;;;;4977170;28;20027;-71
2021/01/23 10:20:45;;;;;;;3.13;2.40;;;5.70;94.40;;;;;;4976983;28;20142;-70
2021/01/23 10:23:12;;;;;;;2.40;2.20;;;5.90;57.70;;;;;;4974947;28;20113;-72
2021/01/23 10:25:38;;;;;;;3.30;2.78;;;5.70;90.00;;;;;;4976921;28;20066;-73
2021/01/23 10:28:03;;;;;;;2.28;2.08;;;5.60;86.10;;;;;;4975635;28;20086;-70
2021/01/23 10:30:29;;;;;;;2.45;2.22;;;5.70;76.30;;;;;;4973217;28;20033;-71
2021/01/23 10:32:54;;;;;;;3.20;2.42;;;5.80;91.30;;;;;;4977709;28;20054;-73
2021/01/23 10:35:20;;;;;;;2.30;2.10;;;5.80;69.60;;;;;;4974772;28;20037;-71
2021/01/23 10:37:46;;;;;;;3.22;2.50;;;5.70;62.60;;;;;;4977222;28;20058;-71
2021/01/23 10:40:12;;;;;;;2.90;2.45;;;5.80;94.70;;;;;;4975788;28;20106;-70
2021/01/23 10:42:38;;;;;;;5.18;2.20;;;5.90;59.20;;;;;;4976493;28;20157;-71
2021/01/23 10:45:04;;;;;;;2.97;2.42;;;5.80;44.10;;;;;;4974588;28;20462;-72
2021/01/23 10:47:30;;;;;;;3.78;2.25;;;5.70;67.90;;;;;;4991227;28;20394;-72
2021/01/23 10:49:56;;;;;;;3.25;2.65;;;5.80;58.50;;;;;;4976323;28;20026;-71
2021/01/23 10:52:21;;;;;;;4.05;2.95;;;5.80;74.90;;;;;;4977179;28;20128;-72
2021/01/23 10:54:47;;;;;;;3.42;3.13;;;5.70;53.50;;;;;;4976441;28;20038;-71
2021/01/23 10:57:12;;;;;;;4.40;2.88;;;5.70;77.30;;;;;;4975878;28;20113;-72
2021/01/23 10:59:38;;;;;;;2.25;1.85;;;5.80;65.50;;;;;;4978001;28;20038;-74
2021/01/23 11:02:04;;;;;;;5.00;2.53;;;5.60;38.70;;;;;;4976446;28;20026;-70
2021/01/23 11:04:29;;;;;;;3.53;2.13;;;5.60;88.80;;;;;;4967729;28;20554;-72
2021/01/23 11:06:55;;;;;;;2.40;2.20;;;5.70;78.60;;;;;;4974160;28;20094;-72
2021/01/23 11:09:22;;;;;;;3.38;2.20;;;5.80;75.60;;;;;;4995278;28;20023;-69
2021/01/23 11:11:47;;;;;;;4.70;2.00;;;5.90;27.90;;;;;;4979749;28;20030;-72
2021/01/23 11:14:13;;;;;;;2.95;2.15;;;6.00;54.30;;;;;;4980074;28;20106;-71
2021/01/23 11:16:39;;;;;;;3.42;2.05;;;6.00;20.40;;;;;;4979073;28;20157;-71
2021/01/23 11:19:05;;;;;;;3.20;2.47;;;6.00;24.50;;;;;;4991606;28;20033;-72
2021/01/23 11:21:30;;;;;;;4.10;2.03;;;5.90;20.70;;;;;;4974523;28;20398;-71
2021/01/23 11:23:56;;;;;;;3.50;2.00;;;5.90;64.20;;;;;;4994366;28;20026;-72
2021/01/23 11:26:22;;;;;;;2.42;1.80;;;6.00;30.90;;;;;;4996225;28;20029;-71
2021/01/23 11:28:48;;;;;;;2.45;2.15;;;6.10;1.10;;;;;;4971878;28;20498;-72
2021/01/23 11:31:14;;;;;;;2.97;1.92;;;6.20;6.90;;;;;;4979397;28;20034;-72
2021/01/23 11:33:40;;;;;;;3.03;2.72;;;6.10;22.90;;;;;;4975030;28;20114;-71
2021/01/23 11:36:07;;;;;;;4.07;1.98;;;6.20;26.40;;;;;;4975080;28;20050;-72
2021/01/23 11:38:32;;;;;;;3.90;1.92;;;6.20;7.00;;;;;;4987627;28;20030;-72
2021/01/23 11:40:58;;;;;;;2.60;2.40;;;6.30;18.90;;;;;;4984967;28;20090;-71
2021/01/23 11:43:23;;;;;;;2.83;1.88;;;6.40;11.60;;;;;;4985845;28;20042;-72
2021/01/23 11:45:49;;;;;;;4.05;2.10;;;6.40;4.10;;;;;;4982275;28;20026;-71
2021/01/23 11:48:15;;;;;;;2.40;2.20;;;6.40;1.00;;;;;;4974816;28;20450;-70
2021/01/23 11:50:40;;;;;;;2.47;1.90;;;6.30;1.00;;;;;;4978138;28;20031;-70
2021/01/23 11:53:06;;;;;;;2.30;1.75;;;6.30;1.00;;;;;;4974843;28;20413;-74
2021/01/23 11:55:31;;;;;;;4.78;1.80;;;6.30;1.00;;;;;;4970607;28;20422;-72
2021/01/23 11:57:58;;;;;;;2.33;1.75;;;6.40;1.00;;;;;;4978867;28;20042;-72
2021/01/23 12:00:24;;;;;;;5.22;1.73;;;6.40;1.00;;;;;;4975419;28;20042;-75
2021/01/23 12:02:50;;;;;;;2.17;1.50;;;6.40;1.00;;;;;;4974721;28;20031;-73
2021/01/23 12:05:19;;;;;;;4.03;1.67;;;6.50;1.00;;;;;;4977010;28;20030;-72
2021/01/23 12:07:48;;;;;;;3.28;1.70;;;6.50;1.00;;;;;;4984903;28;20109;-71
2021/01/23 12:10:17;;;;;;;3.58;1.65;;;6.50;1.00;;;;;;4973669;28;20082;-73
2021/01/23 12:12:44;;;;;;;3.42;2.50;;;6.50;1.00;;;;;;4981516;28;20027;-72
2021/01/23 12:15:10;;;;;;;7.47;2.45;;;6.50;1.00;;;;;;4971593;28;20037;-73
2021/01/23 12:17:36;;;;;;;3.38;1.52;;;6.60;1.00;;;;;;4984273;28;20042;-75
2021/01/23 12:20:04;;;;;;;2.45;1.70;;;6.50;1.00;;;;;;4974714;28;20039;-75
2021/01/23 12:22:29;;;;;;;1.65;1.20;;;6.50;1.00;;;;;;4972565;28;20022;-73
2021/01/23 12:24:57;;;;;;;3.88;1.70;;;6.50;1.00;;;;;;4973263;28;20089;-73
2021/01/23 12:27:22;;;;;;;3.42;1.50;;;6.50;1.00;;;;;;4967489;28;20019;-74
2021/01/23 12:29:48;;;;;;;5.05;1.98;;;6.70;1.00;;;;;;4969980;28;20039;-74
2021/01/23 12:32:13;;;;;;;5.65;1.92;;;6.60;1.00;;;;;;4987971;28;20126;-75
2021/01/23 12:34:39;;;;;;;1.40;1.30;;;6.80;1.00;;;;;;4974641;28;20497;-75
2021/01/23 12:37:05;;;;;;;2.45;1.70;;;6.80;1.00;;;;;;4975095;28;20031;-76
2021/01/23 12:39:30;;;;;;;1.42;1.08;;;6.80;1.00;;;;;;4976199;28;20474;-73
2021/01/23 12:41:56;;;;;;;2.78;1.40;;;6.80;99.90;;;;;;4980820;28;20121;-73
2021/01/23 12:44:24;;;;;;;3.47;1.10;;;6.70;99.90;;;;;;4977932;28;20418;-73
2021/01/23 12:46:51;;;;;;;3.10;1.70;;;6.70;99.90;;;;;;4976490;28;20046;-73
2021/01/23 12:49:16;;;;;;;1.13;1.00;;;6.80;99.90;;;;;;4983625;28;20062;-72
2021/01/23 12:51:42;;;;;;;5.57;1.55;;;6.80;99.90;;;;;;4986747;28;20030;-77
2021/01/23 12:54:08;;;;;;;2.55;1.20;;;6.80;99.90;;;;;;5008929;28;20038;-78
2021/01/23 12:56:33;;;;;;;2.97;1.50;;;6.80;99.90;;;;;;4993172;28;20033;-76
2021/01/23 12:58:59;;;;;;;6.53;1.83;;;6.80;99.90;;;;;;4978004;28;20534;-75
2021/01/23 13:01:24;;;;;;;2.15;1.23;;;6.80;99.90;;;;;;4972433;28;20387;-76
2021/01/23 13:03:50;;;;;;;1.20;1.00;;;6.70;99.90;;;;;;4973508;28;20501;-75